Time;durP1;ratioP1;P1;durP2;ratioP2;P2;SDS_P1;SDS_P2;PMS_P1;PMS_P2;Temp;Humidity;BMP_temperature;BMP_pressure;BME280_temperature;BME280_humidity;BME280_pressure;Samples;Min_cycle;Max_cycle;Signal;HPM_P1;HPM_P2
2022/12/21 00:01:17;;;;;;;41.60;21.75;;;;;;;8.49;100.00;100971.50;5061170;28;20038;-76
2022/12/21 00:03:43;;;;;;;39.47;20.38;;;;;;;8.48;100.00;100969.75;5026248;28;20045;-77
2022/12/21 00:06:10;;;;;;;40.83;20.55;;;;;;;8.50;100.00;100959.69;5048703;28;20055;-77
2022/12/21 00:08:38;;;;;;;41.63;21.20;;;;;;;8.49;100.00;100963.38;5049313;28;20036;-77
2022/12/21 00:11:04;;;;;;;40.45;19.38;;;;;;;8.47;100.00;100966.16;5048207;28;20417;-77
2022/12/21 00:13:31;;;;;;;44.85;20.52;;;;;;;8.44;100.00;100963.66;5048414;28;20071;-76
2022/12/21 00:16:02;;;;;;;44.80;20.70;;;;;;;8.44;100.00;100963.66;5039728;28;20049;-76
2022/12/21 00:18:31;;;;;;;42.30;21.33;;;;;;;8.42;100.00;100957.44;5026282;28;20037;-77
2022/12/21 00:21:08;;;;;;;47.95;22.40;;;;;;;8.42;100.00;100946.59;5058519;28;20047;-76
2022/12/21 00:23:34;;;;;;;41.08;20.52;;;;;;;8.39;100.00;100947.69;5027530;28;20037;-76
2022/12/21 00:26:02;;;;;;;41.38;19.85;;;;;;;8.36;100.00;100956.00;5027531;28;20032;-76
2022/12/21 00:28:28;;;;;;;44.35;20.10;;;;;;;8.36;100.00;100965.94;5027718;28;20037;-77
2022/12/21 00:30:53;;;;;;;41.28;20.92;;;;;;;8.33;100.00;100958.84;5026070;28;20026;-76
2022/12/21 00:33:19;;;;;;;45.88;21.13;;;;;;;8.33;100.00;100963.41;5027246;28;20117;-76
2022/12/21 00:35:49;;;;;;;46.58;21.70;;;;;;;8.33;100.00;100964.25;5041151;28;20036;-76
2022/12/21 00:38:15;;;;;;;43.58;21.10;;;;;;;8.35;100.00;100956.06;5045926;28;20511;-76
2022/12/21 00:40:40;;;;;;;51.58;21.15;;;;;;;8.34;100.00;100955.16;5032884;28;20034;-77
2022/12/21 00:43:06;;;;;;;53.22;23.05;;;;;;;8.32;100.00;100958.94;5027458;28;20045;-77
2022/12/21 00:45:31;;;;;;;52.90;21.67;;;;;;;8.32;100.00;100953.53;5027042;28;20033;-77
2022/12/21 00:47:57;;;;;;;51.67;23.02;;;;;;;8.32;100.00;100962.53;5040891;28;20040;-77
2022/12/21 00:50:22;;;;;;;47.75;21.98;;;;;;;8.31;100.00;100970.75;5031083;28;20459;-77
2022/12/21 00:52:48;;;;;;;43.03;20.48;;;;;;;8.31;100.00;100968.06;5027064;28;20048;-77
2022/12/21 00:55:13;;;;;;;45.78;22.45;;;;;;;8.30;100.00;100972.59;5025648;28;20554;-77
2022/12/21 00:57:38;;;;;;;42.28;20.15;;;;;;;8.29;100.00;100964.53;5025668;28;20455;-76
2022/12/21 01:00:04;;;;;;;42.60;21.77;;;;;;;8.30;100.00;100974.41;5028414;28;20057;-76
2022/12/21 01:02:29;;;;;;;43.47;21.08;;;;;;;8.29;100.00;100981.69;5039683;28;20037;-76
2022/12/21 01:04:55;;;;;;;41.72;20.92;;;;;;;8.24;100.00;100972.09;5039648;28;20037;-77
2022/12/21 01:07:20;;;;;;;48.05;21.15;;;;;;;8.27;100.00;100978.19;5082548;28;20083;-76
2022/12/21 01:09:45;;;;;;;44.67;20.65;;;;;;;8.26;100.00;100986.44;5050568;28;20031;-77
2022/12/21 01:12:11;;;;;;;44.08;20.48;;;;;;;8.25;100.00;100985.53;5045291;28;20041;-77
2022/12/21 01:14:36;;;;;;;41.65;19.83;;;;;;;8.24;100.00;100986.50;5029878;28;20064;-77
2022/12/21 01:17:04;;;;;;;40.92;20.58;;;;;;;8.24;100.00;100986.50;5043055;28;20053;-77
2022/12/21 01:19:29;;;;;;;33.42;17.58;;;;;;;8.19;100.00;100992.22;5032102;28;20033;-76
2022/12/21 01:21:57;;;;;;;41.03;20.45;;;;;;;8.15;100.00;100987.06;5029311;28;20037;-77
2022/12/21 01:24:22;;;;;;;35.08;17.73;;;;;;;8.17;100.00;100996.84;5030561;28;20121;-77
2022/12/21 01:26:48;;;;;;;38.92;17.67;;;;;;;8.16;100.00;100991.53;5040858;28;20052;-77
2022/12/21 01:29:13;;;;;;;34.60;17.17;;;;;;;8.15;100.00;100998.78;5034658;28;20017;-77
2022/12/21 01:31:39;;;;;;;26.23;13.98;;;;;;;8.13;100.00;100981.75;5029008;28;20061;-76
2022/12/21 01:34:08;;;;;;;40.30;19.27;;;;;;;8.12;100.00;100982.72;5028240;28;20374;-77
2022/12/21 01:36:33;;;;;;;32.92;17.08;;;;;;;8.12;100.00;100987.25;5042703;28;20048;-77
2022/12/21 01:39:02;;;;;;;37.40;17.48;;;;;;;8.12;100.00;101007.09;5049020;28;20029;-77
2022/12/21 01:41:28;;;;;;;36.13;18.05;;;;;;;8.08;100.00;100997.41;5034677;28;20125;-77
2022/12/21 01:44:04;;;;;;;27.80;14.57;;;;;;;8.09;100.00;101007.28;5028991;28;20034;-77
2022/12/21 01:46:39;;;;;;;57.50;17.42;;;;;;;8.04;100.00;101003.09;5031624;28;20496;-77
2022/12/21 01:49:29;;;;;;;39.03;15.27;;;;;;;8.02;100.00;101011.34;5017565;28;20366;-77
2022/12/21 01:52:11;;;;;;;37.28;18.67;;;;;;;7.99;100.00;101008.78;5029059;28;20364;-77
2022/12/21 01:54:47;;;;;;;41.58;19.85;;;;;;;8.00;100.00;101009.66;5028710;28;20128;-78
2022/12/21 01:57:14;;;;;;;41.28;18.85;;;;;;;7.97;100.00;101004.41;5030144;28;20415;-77
2022/12/21 01:59:49;;;;;;;45.28;21.15;;;;;;;7.99;100.00;101006.09;5012174;28;20084;-77
2022/12/21 02:02:22;;;;;;;49.83;18.92;;;;;;;7.99;100.00;100997.94;5027632;28;20048;-77
2022/12/21 02:04:50;;;;;;;63.45;21.40;;;;;;;7.98;100.00;100993.50;5033210;28;20037;-77
2022/12/21 02:07:16;;;;;;;45.30;20.90;;;;;;;7.93;100.00;100988.38;5081489;28;20021;-78
2022/12/21 02:09:42;;;;;;;41.90;20.10;;;;;;;7.95;100.00;100992.81;5040596;28;20489;-77
2022/12/21 02:12:14;;;;;;;45.22;20.15;;;;;;;7.92;100.00;100983.00;5027808;28;20489;-77
2022/12/21 02:14:43;;;;;;;43.65;20.73;;;;;;;7.92;100.00;100988.44;5028423;28;20051;-77
2022/12/21 02:17:30;;;;;;;43.78;20.58;;;;;;;7.92;100.00;100993.84;5027497;28;20049;-77
2022/12/21 02:20:34;;;;;;;37.97;18.73;;;;;;;7.95;100.00;100998.22;5028036;28;20489;-77
2022/12/21 02:23:17;;;;;;;35.97;18.40;;;;;;;7.93;100.00;100995.63;5030198;28;20041;-78
2022/12/21 02:26:02;;;;;;;29.85;15.82;;;;;;;7.91;100.00;100992.97;5028130;28;20143;-78
2022/12/21 02:28:54;;;;;;;35.83;17.83;;;;;;;7.92;100.00;100983.88;5028737;28;20048;-78
2022/12/21 02:31:53;;;;;;;33.93;16.93;;;;;;;7.92;100.00;100985.72;5039650;28;20754;-78
2022/12/21 02:34:43;;;;;;;40.60;19.90;;;;;;;7.92;100.00;100983.00;5028207;28;20251;-77
2022/12/21 02:37:19;;;;;;;37.47;16.65;;;;;;;7.89;100.00;100977.78;5046340;28;20033;-77
2022/12/21 02:40:07;;;;;;;71.78;19.20;;;;;;;7.89;100.00;100984.09;5047591;28;20439;-77
2022/12/21 02:45:34;;;;;;;44.95;20.65;;;;;;;7.84;100.00;100983.47;5028666;28;20404;-77
2022/12/21 02:48:15;;;;;;;41.30;18.80;;;;;;;7.82;100.00;100982.69;5034019;28;20515;-77
2022/12/21 02:50:46;;;;;;;40.22;20.10;;;;;;;7.83;100.00;100987.16;5026549;28;20416;-77
2022/12/21 02:53:18;;;;;;;42.05;18.33;;;;;;;7.83;100.00;100984.47;5027755;28;20037;-77
2022/12/21 02:55:45;;;;;;;38.90;18.05;;;;;;;7.80;100.00;100984.63;5028897;28;20473;-77
2022/12/21 02:58:19;;;;;;;45.25;20.63;;;;;;;7.82;100.00;100984.53;5011236;28;20065;-77
2022/12/21 03:00:51;;;;;;;42.72;20.00;;;;;;;7.82;100.00;100977.28;5027110;28;20496;-77
2022/12/21 03:03:49;;;;;;;45.38;20.92;;;;;;;7.83;100.00;100970.00;5028135;28;20388;-77
2022/12/21 03:06:19;;;;;;;47.72;21.88;;;;;;;7.81;100.00;100975.53;5038309;28;20488;-76
2022/12/21 03:09:08;;;;;;;48.63;21.88;;;;;;;7.79;100.00;100972.06;5047370;28;20550;-76
2022/12/21 03:11:49;;;;;;;44.88;21.67;;;;;;;7.82;100.00;100979.09;5037190;28;20029;-76
2022/12/21 03:14:51;;;;;;;46.08;21.40;;;;;;;7.82;100.00;100965.56;5027298;28;20397;-76
2022/12/21 03:17:38;;;;;;;47.13;21.60;;;;;;;7.80;100.00;100965.66;5027036;28;20590;-77
2022/12/21 03:20:29;;;;;;;44.80;20.90;;;;;;;7.81;100.00;100972.81;5026058;28;20053;-77
2022/12/21 03:23:16;;;;;;;43.72;20.10;;;;;;;7.81;100.00;100974.66;5026983;28;20075;-76
2022/12/21 03:25:54;;;;;;;52.13;23.80;;;;;;;7.81;100.00;100972.81;5028351;28;20470;-77
2022/12/21 03:28:26;;;;;;;46.63;21.52;;;;;;;7.79;100.00;100963.94;5026831;28;20119;-76
2022/12/21 03:30:55;;;;;;;49.20;22.15;;;;;;;7.77;100.00;100963.13;5026479;28;20116;-77
2022/12/21 03:33:27;;;;;;;54.20;24.15;;;;;;;7.77;100.00;100952.28;5039515;28;20047;-76
2022/12/21 03:36:05;;;;;;;60.42;24.58;;;;;;;7.76;100.00;100949.69;5036027;28;20562;-76
2022/12/21 03:38:36;;;;;;;51.83;23.30;;;;;;;7.77;100.00;100952.28;5048160;28;20527;-76
2022/12/21 03:41:08;;;;;;;53.85;24.70;;;;;;;7.76;100.00;100958.69;5037477;28;20041;-76
2022/12/21 03:43:36;;;;;;;56.00;23.67;;;;;;;7.76;100.00;100971.34;5027046;28;20048;-76
2022/12/21 03:46:07;;;;;;;55.70;23.13;;;;;;;7.72;100.00;100972.50;5026220;28;20087;-76
2022/12/21 03:48:57;;;;;;;51.75;21.80;;;;;;;7.71;100.00;100954.50;5026218;28;20528;-76
2022/12/21 03:51:36;;;;;;;56.97;22.20;;;;;;;7.70;100.00;100960.88;5026960;28;20044;-76
2022/12/21 03:54:16;;;;;;;46.17;23.05;;;;;;;7.65;100.00;100962.03;5027970;28;20033;-76
2022/12/21 03:56:42;;;;;;;55.35;25.20;;;;;;;7.66;100.00;100952.06;5027897;28;20041;-76
2022/12/21 03:59:11;;;;;;;50.00;23.30;;;;;;;7.65;100.00;100950.31;5027531;28;20032;-76
2022/12/21 04:01:55;;;;;;;55.80;24.00;;;;;;;7.67;100.00;100961.94;5037824;28;20040;-76
2022/12/21 04:04:41;;;;;;;52.20;23.73;;;;;;;7.67;100.00;100960.09;5026771;28;20459;-76
2022/12/21 04:07:08;;;;;;;48.28;21.92;;;;;;;7.63;100.00;100961.22;5044513;28;20033;-76
2022/12/21 04:09:36;;;;;;;49.05;24.30;;;;;;;7.64;100.00;100951.28;5047537;28;20032;-77
2022/12/21 04:12:46;;;;;;;53.58;23.90;;;;;;;7.65;100.00;100956.63;5041771;28;20059;-76
2022/12/21 04:14:51;;;;;;;43.38;22.40;;;;;;;7.65;100.00;100950.31;5018120;28;20072;-77
2022/12/21 04:17:16;;;;;;;50.40;23.77;;;;;;;7.63;100.00;100944.97;5033626;28;20049;-76
2022/12/21 04:20:00;;;;;;;55.03;24.63;;;;;;;7.66;100.00;100943.94;5038075;28;20060;-76
2022/12/21 04:28:08;;;;;;;49.67;23.15;;;;;;;7.66;100.00;100950.22;5027808;28;20556;-76
2022/12/21 04:30:39;;;;;;;50.40;22.30;;;;;;;7.63;100.00;100944.97;5025877;28;20510;-76
2022/12/21 04:33:06;;;;;;;50.97;22.15;;;;;;;7.63;100.00;100953.09;5026723;28;20056;-76
2022/12/21 04:35:32;;;;;;;46.63;21.77;;;;;;;7.64;100.00;100952.13;5031141;28;20419;-76
2022/12/21 04:37:58;;;;;;;47.35;22.63;;;;;;;7.63;100.00;100953.09;5047502;28;20025;-76
2022/12/21 04:40:23;;;;;;;43.88;20.35;;;;;;;7.61;100.00;100946.91;5041050;28;20036;-76
2022/12/21 04:42:48;;;;;;;51.38;22.65;;;;;;;7.61;100.00;100946.91;5027541;28;20041;-77
2022/12/21 04:45:14;;;;;;;40.67;20.42;;;;;;;7.61;100.00;100941.50;5026703;28;20033;-76
2022/12/21 04:47:39;;;;;;;43.05;20.48;;;;;;;7.60;100.00;100938.88;5026863;28;20042;-76
2022/12/21 04:50:05;;;;;;;42.85;21.33;;;;;;;7.59;100.00;100937.13;5025219;28;20037;-77
2022/12/21 04:52:31;;;;;;;45.63;21.35;;;;;;;7.57;100.00;100944.47;5025824;28;20041;-76
2022/12/21 04:54:57;;;;;;;37.42;19.63;;;;;;;7.58;100.00;100947.09;5027644;28;20489;-76
2022/12/21 04:57:22;;;;;;;34.85;19.17;;;;;;;7.55;100.00;100938.25;5026578;28;20106;-76
2022/12/21 04:59:48;;;;;;;30.05;16.90;;;;;;;7.54;100.00;100948.22;5036580;28;20132;-77
2022/12/21 05:02:13;;;;;;;41.67;18.77;;;;;;;7.52;100.00;100939.34;5026710;28;20079;-76
2022/12/21 05:04:39;;;;;;;35.97;18.10;;;;;;;7.51;100.00;100934.03;5032715;28;20484;-76
2022/12/21 05:07:04;;;;;;;34.38;17.70;;;;;;;7.49;100.00;100935.94;5044715;28;20453;-76
2022/12/21 05:09:30;;;;;;;35.22;17.10;;;;;;;7.51;100.00;100932.19;5047142;28;20037;-76
2022/12/21 05:11:55;;;;;;;34.85;17.50;;;;;;;7.51;100.00;100936.72;5033607;28;20064;-76
2022/12/21 05:14:21;;;;;;;31.75;16.42;;;;;;;7.49;100.00;100938.63;5026728;28;20048;-76
2022/12/21 05:16:47;;;;;;;34.88;17.52;;;;;;;7.47;100.00;100943.28;5026085;28;20057;-76
2022/12/21 05:19:14;;;;;;;31.33;15.77;;;;;;;7.43;100.00;100952.53;5025823;28;20050;-76
2022/12/21 05:21:40;;;;;;;30.83;16.33;;;;;;;7.42;100.00;100951.66;5024960;28;20461;-75
2022/12/21 05:24:05;;;;;;;32.10;16.17;;;;;;;7.39;100.00;100947.28;5026918;28;20040;-77
2022/12/21 05:26:31;;;;;;;29.40;15.35;;;;;;;7.39;100.00;100943.72;5027014;28;20021;-76
2022/12/21 05:28:56;;;;;;;29.95;14.77;;;;;;;7.39;100.00;100941.00;5026169;28;20084;-76
2022/12/21 05:31:22;;;;;;;34.08;15.60;;;;;;;7.38;100.00;100936.56;5035432;28;20041;-76
2022/12/21 05:33:47;;;;;;;32.97;15.70;;;;;;;7.35;100.00;100923.19;5026197;28;20104;-76
2022/12/21 05:36:15;;;;;;;31.88;15.02;;;;;;;7.36;100.00;100931.22;5032121;28;20108;-76
2022/12/21 05:38:41;;;;;;;30.60;15.38;;;;;;;7.35;100.00;100928.59;5040528;28;20036;-77
2022/12/21 05:41:07;;;;;;;29.00;16.15;;;;;;;7.32;100.00;100929.69;5036150;28;20051;-76
2022/12/21 05:43:32;;;;;;;29.48;15.00;;;;;;;7.31;100.00;100933.31;5030128;28;20045;-76
2022/12/21 05:46:06;;;;;;;35.15;13.75;;;;;;;7.29;100.00;100932.53;5034626;28;20496;-76
2022/12/21 05:48:32;;;;;;;29.15;13.93;;;;;;;7.27;100.00;100934.44;5042873;28;20099;-76
2022/12/21 05:50:58;;;;;;;33.80;14.93;;;;;;;7.27;100.00;100941.69;5046895;28;20037;-76
2022/12/21 05:53:23;;;;;;;26.42;13.45;;;;;;;7.24;100.00;100921.13;5048894;28;20033;-77
2022/12/21 05:55:49;;;;;;;26.42;14.73;;;;;;;7.23;100.00;100929.31;5036590;28;20143;-76
2022/12/21 05:58:15;;;;;;;25.02;13.90;;;;;;;7.21;100.00;100929.41;5031701;28;20488;-77
2022/12/21 06:00:40;;;;;;;28.90;14.18;;;;;;;7.16;100.00;100923.38;5041103;28;20036;-77
2022/12/21 06:03:06;;;;;;;27.58;13.38;;;;;;;7.15;100.00;100936.03;5042642;28;20043;-76
2022/12/21 06:05:34;;;;;;;27.98;13.82;;;;;;;7.13;100.00;100916.31;5038339;28;20044;-76
2022/12/21 06:08:00;;;;;;;29.88;13.77;;;;;;;7.11;100.00;100917.34;5034173;28;20405;-76
2022/12/21 06:10:26;;;;;;;30.55;14.63;;;;;;;7.07;100.00;100922.06;5030604;28;20053;-76
2022/12/21 06:12:51;;;;;;;24.15;13.07;;;;;;;7.06;100.00;100928.44;5030054;28;20409;-76
2022/12/21 06:15:17;;;;;;;22.40;12.88;;;;;;;7.05;100.00;100912.31;5029159;28;20073;-76
2022/12/21 06:17:42;;;;;;;30.45;13.43;;;;;;;7.03;100.00;100917.78;5043657;28;20060;-76
2022/12/21 06:20:08;;;;;;;26.42;13.57;;;;;;;7.04;100.00;100919.56;5028646;28;20095;-76
2022/12/21 06:22:34;;;;;;;23.52;12.57;;;;;;;7.00;100.00;100920.69;5027728;28;20057;-76
2022/12/21 06:24:59;;;;;;;24.75;13.27;;;;;;;7.02;100.00;100917.88;5030151;28;20037;-76
2022/12/21 06:27:25;;;;;;;26.63;13.05;;;;;;;7.00;100.00;100911.69;5012176;28;20045;-76
2022/12/21 06:29:50;;;;;;;27.02;12.32;;;;;;;6.99;100.00;100924.31;5037764;28;20107;-77
2022/12/21 06:32:16;;;;;;;27.40;11.88;;;;;;;6.98;100.00;100929.81;5027298;28;20036;-76
2022/12/21 06:34:41;;;;;;;28.73;13.43;;;;;;;6.97;100.00;100930.78;5045837;28;20503;-76
2022/12/21 06:37:06;;;;;;;21.85;11.70;;;;;;;6.94;100.00;100934.53;5046149;28;20029;-76
2022/12/21 06:39:32;;;;;;;22.45;11.90;;;;;;;6.89;100.00;100925.81;5048111;28;20028;-76
2022/12/21 06:41:57;;;;;;;24.25;10.82;;;;;;;6.87;100.00;100925.03;5039394;28;20080;-76
2022/12/21 06:44:22;;;;;;;21.02;10.85;;;;;;;6.83;100.00;100921.63;5032315;28;20025;-76
2022/12/21 06:46:48;;;;;;;24.10;10.80;;;;;;;6.81;100.00;100919.97;5033000;28;20033;-76
2022/12/21 06:49:14;;;;;;;18.88;10.52;;;;;;;6.79;100.00;100927.28;5027186;28;20029;-76
2022/12/21 06:51:39;;;;;;;21.45;10.70;;;;;;;6.75;100.00;100914.88;5027099;28;20041;-76
2022/12/21 06:54:04;;;;;;;18.27;9.02;;;;;;;6.77;100.00;100926.50;5028870;28;20094;-76
2022/12/21 06:56:31;;;;;;;22.00;9.95;;;;;;;6.77;100.00;100927.38;5029132;28;20401;-76
2022/12/21 06:58:56;;;;;;;23.65;10.85;;;;;;;6.72;100.00;100926.75;5017195;28;20515;-76
2022/12/21 07:01:24;;;;;;;26.02;9.88;;;;;;;6.75;100.00;100950.91;5041795;28;20041;-76
2022/12/21 07:03:50;;;;;;;19.63;9.52;;;;;;;6.74;100.00;100951.88;5043778;28;20503;-76
2022/12/21 07:06:18;;;;;;;16.83;8.15;;;;;;;6.74;100.00;100946.47;5047147;28;20337;-76
2022/12/21 07:08:44;;;;;;;23.83;9.57;;;;;;;6.75;100.00;100947.34;5048872;28;20029;-76
2022/12/21 07:11:12;;;;;;;20.33;7.60;;;;;;;6.74;100.00;100943.75;5046255;28;20488;-76
2022/12/21 07:13:39;;;;;;;19.27;8.65;;;;;;;6.74;100.00;100945.59;5042652;28;20560;-76
2022/12/21 07:16:05;;;;;;;19.15;8.93;;;;;;;6.70;100.00;100939.47;5034381;28;20041;-76
2022/12/21 07:18:30;;;;;;;19.52;8.55;;;;;;;6.68;100.00;100937.81;5044505;28;20478;-76
2022/12/21 07:20:57;;;;;;;22.40;9.07;;;;;;;6.66;100.00;100946.00;5047005;28;20094;-76
2022/12/21 07:23:24;;;;;;;15.07;8.20;;;;;;;6.61;100.00;100943.53;5047186;28;20039;-76
2022/12/21 07:25:49;;;;;;;22.67;8.25;;;;;;;6.60;100.00;100958.03;5047088;28;20029;-76
2022/12/21 07:28:14;;;;;;;17.73;8.05;;;;;;;6.57;100.00;100952.78;5035809;28;20047;-76
2022/12/21 07:30:40;;;;;;;16.77;6.80;;;;;;;6.53;100.00;100955.75;5041743;28;20044;-76
2022/12/21 07:33:05;;;;;;;10.50;5.97;;;;;;;6.49;100.00;100962.28;5028224;28;20044;-76
2022/12/21 07:35:31;;;;;;;15.63;7.15;;;;;;;6.48;100.00;100960.50;5032363;28;20032;-76
2022/12/21 07:37:56;;;;;;;14.68;5.78;;;;;;;6.47;100.00;100964.16;5048604;28;20122;-76
2022/12/21 07:40:21;;;;;;;17.58;6.03;;;;;;;6.44;100.00;100965.22;5046880;28;20312;-76
2022/12/21 07:42:47;;;;;;;17.10;5.85;;;;;;;6.38;100.00;100965.53;5046851;28;20037;-76
2022/12/21 07:45:20;;;;;;;13.73;5.30;;;;;;;6.44;100.00;100981.44;5044210;28;20052;-76
2022/12/21 07:47:48;;;;;;;14.13;6.15;;;;;;;6.43;100.00;100982.38;5036593;28;20037;-76
2022/12/21 07:50:13;;;;;;;16.60;5.85;;;;;;;6.48;100.00;100998.34;5047373;28;20017;-76
2022/12/21 07:52:39;;;;;;;20.40;6.20;;;;;;;6.46;100.00;100997.56;5033977;28;20068;-76
2022/12/21 07:55:05;;;;;;;11.23;5.68;;;;;;;6.48;100.00;101007.34;5027862;28;20037;-75
2022/12/21 07:57:31;;;;;;;13.98;5.57;;;;;;;6.49;100.00;101006.38;5026178;28;20038;-76
2022/12/21 07:59:56;;;;;;;13.30;5.90;;;;;;;6.46;100.00;101001.13;5028066;28;20113;-76
2022/12/21 08:02:21;;;;;;;13.15;5.30;;;;;;;6.46;100.00;101000.28;5060106;28;20037;-76
2022/12/21 08:04:47;;;;;;;13.90;6.93;;;;;;;6.46;100.00;101006.53;5026988;28;20044;-76
2022/12/21 08:07:12;;;;;;;15.05;5.95;;;;;;;6.45;100.00;100999.41;5046608;28;20143;-76
2022/12/21 08:09:37;;;;;;;19.90;6.65;;;;;;;6.45;100.00;100993.13;5030466;28;20128;-76
2022/12/21 08:12:03;;;;;;;17.23;6.97;;;;;;;6.45;100.00;100995.81;5059589;28;20499;-76
2022/12/21 08:14:29;;;;;;;20.38;7.18;;;;;;;6.44;100.00;100984.16;5026838;28;20401;-76
2022/12/21 08:16:54;;;;;;;15.65;6.60;;;;;;;6.40;100.00;100974.44;5069875;28;20049;-77
2022/12/21 08:19:21;;;;;;;16.52;7.93;;;;;;;6.44;100.00;100996.78;5026537;28;20065;-76
2022/12/21 08:21:46;;;;;;;21.15;6.78;;;;;;;6.44;100.00;101002.19;5025577;28;20564;-76
2022/12/21 08:24:12;;;;;;;23.10;7.15;;;;;;;6.45;100.00;100998.53;5027305;28;20101;-76
2022/12/21 08:26:37;;;;;;;15.70;7.93;;;;;;;6.47;100.00;101016.38;5009430;28;21421;-76
2022/12/21 08:29:03;;;;;;;20.02;8.43;;;;;;;6.49;100.00;101011.78;5027066;28;20056;-76
2022/12/21 08:31:29;;;;;;;16.40;8.35;;;;;;;6.52;100.00;101008.03;5026629;28;20358;-76
2022/12/21 08:33:54;;;;;;;21.63;9.60;;;;;;;6.54;100.00;101015.13;5045980;28;20082;-76
2022/12/21 08:36:23;;;;;;;24.38;9.10;;;;;;;6.58;100.00;100999.63;5045768;28;20037;-76
2022/12/21 08:38:50;;;;;;;20.65;8.40;;;;;;;6.61;100.00;101002.16;5045820;28;20040;-76
2022/12/21 08:41:15;;;;;;;24.27;9.02;;;;;;;6.64;100.00;101002.84;5047128;28;20045;-76
2022/12/21 08:43:40;;;;;;;30.17;9.95;;;;;;;6.70;100.00;101001.66;5027465;28;20049;-76
2022/12/21 08:46:09;;;;;;;21.73;9.65;;;;;;;6.75;100.00;101006.81;5025228;28;20499;-75
2022/12/21 08:48:35;;;;;;;23.73;9.52;;;;;;;6.79;100.00;101003.00;5025659;28;20048;-76
2022/12/21 08:51:01;;;;;;;21.15;9.13;;;;;;;6.84;100.00;101009.00;5025914;28;20044;-77
2022/12/21 08:53:27;;;;;;;24.02;10.07;;;;;;;6.86;100.00;101001.72;5026238;28;20543;-77
2022/12/21 08:55:53;;;;;;;24.92;10.10;;;;;;;6.94;100.00;101012.09;5026745;28;20149;-76
2022/12/21 08:58:19;;;;;;;24.10;9.75;;;;;;;6.96;100.00;101010.19;5026667;28;20033;-76
2022/12/21 09:00:45;;;;;;;25.02;9.55;;;;;;;7.02;100.00;101012.56;5025790;28;20048;-76
2022/12/21 09:03:10;;;;;;;42.72;10.85;;;;;;;7.06;100.00;101014.13;5026827;28;20025;-76
2022/12/21 09:05:36;;;;;;;31.38;11.45;;;;;;;7.08;100.00;101010.38;5032174;28;20048;-76
2022/12/21 09:08:02;;;;;;;31.10;11.05;;;;;;;7.10;100.00;101011.19;5045507;28;20036;-76
2022/12/21 09:10:28;;;;;;;33.70;13.57;;;;;;;7.13;100.00;100996.59;5043851;28;20613;-76
2022/12/21 09:12:55;;;;;;;35.92;13.77;;;;;;;7.15;100.00;101000.97;5026961;28;20507;-77
2022/12/21 09:15:20;;;;;;;30.85;12.55;;;;;;;7.20;100.00;100992.59;5026305;28;20440;-77
2022/12/21 09:17:46;;;;;;;35.08;14.40;;;;;;;7.26;100.00;100992.25;5036005;28;20076;-76
2022/12/21 09:20:12;;;;;;;27.88;12.80;;;;;;;7.29;100.00;100994.78;5027349;28;20029;-76
2022/12/21 09:22:37;;;;;;;45.80;15.43;;;;;;;7.33;100.00;100988.25;5030339;28;20025;-76
2022/12/21 09:25:03;;;;;;;33.05;15.68;;;;;;;7.35;100.00;100991.72;5030626;28;20334;-76
2022/12/21 09:27:29;;;;;;;32.15;14.38;;;;;;;7.37;100.00;100994.38;5030029;28;20032;-76
2022/12/21 09:29:54;;;;;;;37.63;14.07;;;;;;;7.40;100.00;100996.88;5012958;28;20369;-77
2022/12/21 09:32:19;;;;;;;40.28;14.82;;;;;;;7.41;100.00;101010.34;5030087;28;20037;-76
2022/12/21 09:34:45;;;;;;;32.17;14.20;;;;;;;7.41;100.00;101004.03;5028506;28;20124;-77
2022/12/21 09:37:10;;;;;;;39.97;14.63;;;;;;;7.43;100.00;101004.84;5048947;28;20033;-77
2022/12/21 09:39:37;;;;;;;33.97;14.07;;;;;;;7.45;100.00;101005.59;5044899;28;20553;-77
2022/12/21 09:42:25;;;;;;;34.90;15.57;;;;;;;7.50;100.00;101011.63;5035206;28;20036;-77
2022/12/21 09:45:05;;;;;;;32.63;12.48;;;;;;;7.53;100.00;101011.47;5050369;28;20051;-77
2022/12/21 09:47:45;;;;;;;32.28;15.40;;;;;;;7.57;100.00;101013.03;5036994;28;20144;-77
2022/12/21 09:50:24;;;;;;;30.73;13.82;;;;;;;7.57;100.00;101013.03;5029720;28;20040;-77
2022/12/21 09:53:02;;;;;;;28.05;13.43;;;;;;;7.58;100.00;101017.47;5030444;28;20064;-77
2022/12/21 09:55:32;;;;;;;33.35;14.73;;;;;;;7.63;100.00;101019.94;5030807;28;20067;-77
2022/12/21 09:58:04;;;;;;;40.67;15.00;;;;;;;7.68;100.00;101024.09;5030777;28;20091;-77
2022/12/21 10:00:36;;;;;;;29.10;13.85;;;;;;;7.75;100.00;101026.47;5030233;28;20044;-78
2022/12/21 10:03:34;;;;;;;27.10;13.90;;;;;;;7.82;100.00;101034.16;5029045;28;20412;-77
2022/12/21 10:06:08;;;;;;;32.90;13.27;;;;;;;7.85;100.00;101024.97;5038682;28;20492;-77
2022/12/21 10:09:03;;;;;;;28.63;12.77;;;;;;;7.89;100.00;101015.72;5048392;28;20098;-76
2022/12/21 10:11:55;;;;;;;29.50;12.23;;;;;;;7.93;100.00;101022.72;5046540;28;20041;-77
2022/12/21 10:14:42;;;;;;;30.10;12.00;;;;;;;7.95;100.00;101017.19;5029922;28;20695;-78
2022/12/21 10:17:23;;;;;;;37.47;13.05;;;;;;;8.00;100.00;101020.50;5031439;28;20045;-77
2022/12/21 10:19:57;;;;;;;27.27;12.40;;;;;;;7.98;100.00;101028.72;5047467;28;20462;-77
2022/12/21 10:22:30;;;;;;;28.58;12.27;;;;;;;7.99;100.00;101035.88;5031917;28;20033;-77
2022/12/21 10:25:03;;;;;;;29.17;12.55;;;;;;;7.99;100.00;101029.59;5030130;28;20092;-76
2022/12/21 10:27:37;;;;;;;28.27;11.88;;;;;;;7.97;100.00;101017.97;5035788;28;20557;-76
2022/12/21 10:30:04;;;;;;;33.72;13.05;;;;;;;7.97;100.00;101021.53;5029507;28;20443;-77
2022/12/21 10:32:34;;;;;;;28.70;11.98;;;;;;;7.93;100.00;101007.31;5039678;28;20116;-77
2022/12/21 10:35:24;;;;;;;26.48;11.90;;;;;;;7.97;100.00;101015.25;5029115;28;20127;-77
2022/12/21 10:37:52;;;;;;;26.33;10.80;;;;;;;7.95;100.00;101014.47;5046969;28;20407;-77
2022/12/21 10:40:22;;;;;;;31.00;12.95;;;;;;;7.92;100.00;101008.25;5061071;28;20048;-76
2022/12/21 10:42:49;;;;;;;29.33;12.15;;;;;;;7.92;100.00;101002.84;5039997;28;20041;-77
2022/12/21 10:45:18;;;;;;;22.10;12.25;;;;;;;7.93;100.00;101006.47;5046787;28;20500;-77
2022/12/21 10:47:44;;;;;;;27.77;10.95;;;;;;;7.88;100.00;100989.56;5037271;28;20098;-77
2022/12/21 10:50:28;;;;;;;23.70;11.68;;;;;;;7.91;100.00;100995.69;5046913;28;20028;-77
2022/12/21 10:52:56;;;;;;;27.25;10.68;;;;;;;7.93;100.00;100984.78;5049038;28;20461;-77
2022/12/21 10:55:21;;;;;;;26.25;12.07;;;;;;;7.92;100.00;100980.31;5047702;28;20028;-77
2022/12/21 10:57:50;;;;;;;24.40;11.65;;;;;;;7.91;100.00;100973.16;5035639;28;20456;-77
2022/12/21 11:00:49;;;;;;;23.42;12.75;;;;;;;7.93;100.00;100977.53;5029040;28;20028;-77
2022/12/21 11:03:30;;;;;;;28.80;10.82;;;;;;;7.95;100.00;100977.44;5020611;28;20129;-77
2022/12/21 11:05:56;;;;;;;24.98;12.00;;;;;;;7.93;100.00;100972.09;5044766;28;20073;-78
2022/12/21 11:08:23;;;;;;;21.92;11.23;;;;;;;7.98;100.00;100976.38;5048979;28;20542;-77
2022/12/21 11:10:56;;;;;;;25.38;11.98;;;;;;;7.96;100.00;100978.28;5048965;28;20063;-77
2022/12/21 11:13:25;;;;;;;30.98;12.30;;;;;;;7.94;100.00;100972.97;5030600;28;20132;-77
2022/12/21 11:16:00;;;;;;;24.15;11.27;;;;;;;7.95;100.00;100974.72;5028130;28;20029;-77
2022/12/21 11:18:39;;;;;;;27.58;12.13;;;;;;;7.93;100.00;100976.66;5028750;28;20380;-76
2022/12/21 11:21:13;;;;;;;25.45;10.68;;;;;;;7.91;100.00;100973.16;5025917;28;20146;-77
2022/12/21 11:23:39;;;;;;;30.52;11.77;;;;;;;7.91;100.00;100975.84;5028544;28;20095;-77
2022/12/21 11:26:14;;;;;;;23.20;11.15;;;;;;;7.92;100.00;100977.59;5028732;28;20029;-77
2022/12/21 11:28:40;;;;;;;25.83;10.85;;;;;;;7.89;100.00;100972.38;5028253;28;20048;-77
2022/12/21 11:31:06;;;;;;;28.08;12.32;;;;;;;7.91;100.00;100978.56;5026845;28;20033;-76
2022/12/21 11:33:32;;;;;;;29.65;12.75;;;;;;;7.90;100.00;100975.00;5026750;28;20064;-76